Time;durP1;ratioP1;P1;durP2;ratioP2;P2;SDS_P1;SDS_P2;PMS_P1;PMS_P2;Temp;Humidity;BMP_temperature;BMP_pressure;BME280_temperature;BME280_humidity;BME280_pressure;Samples;Min_cycle;Max_cycle;Signal;HPM_P1;HPM_P2
2022/06/12 00:02:24;;;;;;;12.88;2.70;;;;;;;14.08;100.00;102251.72;5014441;28;20087;-46
2022/06/12 00:04:50;;;;;;;10.77;3.08;;;;;;;14.07;100.00;102244.66;5015151;28;20029;-46
2022/06/12 00:07:15;;;;;;;10.55;2.75;;;;;;;14.05;100.00;102248.50;5015344;28;20485;-46
2022/06/12 00:09:40;;;;;;;8.95;2.50;;;;;;;14.08;100.00;102245.50;5015976;28;20036;-47
2022/06/12 00:12:06;;;;;;;10.73;2.65;;;;;;;14.06;100.00;102251.03;5015461;28;20109;-44
2022/06/12 00:14:32;;;;;;;12.50;3.00;;;;;;;14.06;100.00;102252.88;5013875;28;20045;-45
2022/06/12 00:16:57;;;;;;;14.43;3.13;;;;;;;14.10;100.00;102246.19;5015125;28;20021;-49
2022/06/12 00:19:23;;;;;;;14.10;2.85;;;;;;;14.12;100.00;102247.75;5014215;28;20025;-44
2022/06/12 00:21:49;;;;;;;14.90;3.03;;;;;;;14.12;100.00;102245.06;5015279;28;20025;-47
2022/06/12 00:24:17;;;;;;;14.80;3.25;;;;;;;14.14;100.00;102244.91;5014809;28;20029;-47
2022/06/12 00:26:49;;;;;;;17.88;3.38;;;;;;;14.19;100.00;102239.94;5016119;28;20037;-44
2022/06/12 00:29:19;;;;;;;17.25;3.10;;;;;;;14.18;100.00;102246.28;5013728;28;20469;-46
2022/06/12 00:31:51;;;;;;;15.60;2.92;;;;;;;14.19;100.00;102242.63;5016053;28;20597;-44
2022/06/12 00:34:20;;;;;;;12.10;2.90;;;;;;;14.17;100.00;102241.91;5013594;28;20029;-46
2022/06/12 00:36:46;;;;;;;14.07;3.38;;;;;;;14.08;100.00;102235.59;5014886;28;20360;-43
2022/06/12 00:39:12;;;;;;;16.50;3.20;;;;;;;14.13;100.00;102244.06;5014362;28;20018;-44
2022/06/12 00:41:41;;;;;;;12.25;3.28;;;;;;;14.12;100.00;102244.19;5015492;28;20057;-45
2022/06/12 00:44:11;;;;;;;15.90;3.53;;;;;;;14.07;100.00;102241.13;5014785;28;20013;-43
2022/06/12 00:46:58;;;;;;;13.00;3.17;;;;;;;14.02;100.00;102238.91;5014947;28;20034;-44
2022/06/12 00:49:33;;;;;;;13.25;3.30;;;;;;;13.87;100.00;102246.59;5014243;28;20024;-45
2022/06/12 00:52:20;;;;;;;13.45;2.97;;;;;;;13.79;100.00;102241.97;5014420;28;20029;-44
2022/06/12 00:54:49;;;;;;;13.18;3.35;;;;;;;13.83;100.00;102247.88;5014980;28;20037;-45
2022/06/12 00:57:16;;;;;;;10.98;2.92;;;;;;;13.83;100.00;102244.34;5015320;28;20047;-44
2022/06/12 00:59:55;;;;;;;13.93;3.15;;;;;;;13.83;100.00;102249.72;5015528;28;20051;-45
2022/06/12 01:02:27;;;;;;;11.43;2.80;;;;;;;13.77;100.00;102241.28;5013836;28;20458;-44
2022/06/12 01:07:43;;;;;;;11.88;3.30;;;;;;;13.66;100.00;102237.91;5014431;28;20036;-44
2022/06/12 01:10:11;;;;;;;10.02;2.92;;;;;;;13.62;100.00;102242.75;5012635;28;20106;-44
2022/06/12 01:12:43;;;;;;;16.80;3.60;;;;;;;13.60;100.00;102239.38;5014419;28;20036;-48
2022/06/12 01:15:16;;;;;;;10.10;3.28;;;;;;;13.62;100.00;102234.69;5012879;28;20053;-44
2022/06/12 01:17:43;;;;;;;12.95;3.25;;;;;;;13.58;100.00;102236.81;5013838;28;20120;-45
2022/06/12 01:20:12;;;;;;;19.02;3.42;;;;;;;13.56;100.00;102238.81;5014765;28;20112;-43
2022/06/12 01:23:11;;;;;;;10.43;2.97;;;;;;;13.53;100.00;102232.91;5014791;28;20884;-45
2022/06/12 01:26:10;;;;;;;12.55;3.28;;;;;;;13.56;100.00;102235.25;5017246;28;20476;-48
2022/06/12 01:29:01;;;;;;;10.68;2.88;;;;;;;13.55;100.00;102233.59;5018044;28;20061;-45
2022/06/12 01:31:50;;;;;;;15.20;3.20;;;;;;;13.51;100.00;102234.84;5018293;28;20033;-45
2022/06/12 01:34:25;;;;;;;11.60;3.10;;;;;;;13.49;100.00;102234.16;5016843;28;20112;-47
2022/06/12 01:37:11;;;;;;;12.98;3.10;;;;;;;13.45;100.00;102241.66;5018615;28;20417;-45
2022/06/12 01:40:00;;;;;;;9.82;2.88;;;;;;;13.49;100.00;102236.84;5017788;28;20083;-44
2022/06/12 01:42:34;;;;;;;15.43;3.17;;;;;;;13.45;100.00;102230.09;5018325;28;20536;-46
2022/06/12 01:45:08;;;;;;;12.43;2.95;;;;;;;13.44;100.00;102226.53;5018446;28;20480;-47
2022/06/12 01:48:04;;;;;;;12.18;3.10;;;;;;;13.37;100.00;102234.38;5016152;28;20061;-47
2022/06/12 01:50:46;;;;;;;11.00;2.95;;;;;;;13.38;100.00;102229.84;5017953;28;20382;-45
2022/06/12 01:53:20;;;;;;;15.05;3.50;;;;;;;13.28;100.00;102223.63;5017762;28;20105;-47
2022/06/12 01:55:59;;;;;;;22.63;3.30;;;;;;;13.17;100.00;102236.22;5017961;28;20026;-48
2022/06/12 01:58:37;;;;;;;17.55;3.42;;;;;;;13.08;100.00;102229.00;5017872;28;20025;-47
2022/06/12 02:01:14;;;;;;;14.35;3.38;;;;;;;13.02;100.00;102233.13;5017131;28;20064;-45
2022/06/12 02:03:49;;;;;;;12.85;3.05;;;;;;;12.97;100.00;102243.44;5014954;28;20029;-48
2022/06/12 02:06:28;;;;;;;15.90;3.78;;;;;;;12.98;100.00;102233.53;5016578;28;20116;-47
2022/06/12 02:08:59;;;;;;;10.40;3.20;;;;;;;12.93;100.00;102228.59;5016465;28;20389;-44
2022/06/12 02:14:19;;;;;;;16.67;3.10;;;;;;;12.84;100.00;102218.72;5017872;28;20423;-48
2022/06/12 02:16:49;;;;;;;17.95;3.42;;;;;;;12.80;100.00;102236.09;5017720;28;20268;-46
2022/06/12 02:19:18;;;;;;;11.23;3.55;;;;;;;12.74;100.00;102239.34;5016278;28;20104;-44
2022/06/12 02:21:54;;;;;;;12.48;3.67;;;;;;;12.75;100.00;102238.38;5018546;28;20478;-46
2022/06/12 02:24:25;;;;;;;10.93;3.28;;;;;;;12.69;100.00;102231.72;5015583;28;20029;-45
2022/06/12 02:27:00;;;;;;;11.40;3.17;;;;;;;12.72;100.00;102225.22;5015121;28;20026;-47
2022/06/12 02:29:37;;;;;;;16.30;3.10;;;;;;;12.71;100.00;102235.09;5017615;28;20507;-46
2022/06/12 02:32:09;;;;;;;21.20;3.70;;;;;;;12.65;100.00;102233.84;5015546;28;20069;-45
2022/06/12 02:34:40;;;;;;;13.32;3.17;;;;;;;12.68;100.00;102235.41;5016767;28;20022;-45
2022/06/12 02:37:17;;;;;;;12.77;4.00;;;;;;;12.64;100.00;102232.16;5016200;28;20284;-44
2022/06/12 02:39:50;;;;;;;14.38;3.75;;;;;;;12.64;100.00;102225.94;5017469;28;20136;-45
2022/06/12 02:42:21;;;;;;;11.93;3.45;;;;;;;12.55;100.00;102222.25;5017381;28;20550;-44
2022/06/12 02:45:01;;;;;;;20.67;4.15;;;;;;;12.50;100.00;102217.31;5016086;28;20092;-47
2022/06/12 02:47:30;;;;;;;15.63;4.03;;;;;;;12.48;100.00;102218.44;5015916;28;20017;-49
2022/06/12 02:49:58;;;;;;;15.43;4.18;;;;;;;12.41;100.00;102207.44;5016699;28;20242;-46
2022/06/12 02:52:32;;;;;;;14.63;4.05;;;;;;;12.40;100.00;102211.09;5015522;28;20460;-44
2022/06/12 02:55:00;;;;;;;18.50;4.85;;;;;;;12.39;100.00;102212.09;5014419;28;20460;-49
2022/06/12 02:57:49;;;;;;;16.58;4.30;;;;;;;12.38;100.00;102206.88;5016944;28;20034;-45
2022/06/12 03:00:34;;;;;;;16.50;4.28;;;;;;;12.32;100.00;102208.25;5017359;28;20029;-44
2022/06/12 03:03:06;;;;;;;11.85;3.90;;;;;;;12.28;100.00;102212.22;5004186;28;20358;-48
2022/06/12 03:05:37;;;;;;;24.20;4.40;;;;;;;12.23;100.00;102211.78;5016563;28;20026;-45
2022/06/12 03:08:08;;;;;;;17.10;4.30;;;;;;;12.29;100.00;102213.94;5016253;28;20028;-45
2022/06/12 03:10:38;;;;;;;19.13;4.22;;;;;;;12.38;100.00;102210.41;5015509;28;20269;-52
2022/06/12 03:13:06;;;;;;;17.42;4.40;;;;;;;12.39;100.00;102206.75;5016509;28;20052;-43
2022/06/12 03:15:40;;;;;;;15.98;4.28;;;;;;;12.43;100.00;102215.34;5017363;28;20033;-43
2022/06/12 03:18:10;;;;;;;16.13;4.38;;;;;;;12.51;100.00;102220.88;5015502;28;20084;-45
2022/06/12 03:21:11;;;;;;;15.02;4.32;;;;;;;12.49;100.00;102222.81;5016235;28;20031;-46
2022/06/12 03:23:53;;;;;;;13.07;4.00;;;;;;;12.46;100.00;102223.94;4990923;28;20056;-44
2022/06/12 03:26:45;;;;;;;19.50;4.20;;;;;;;12.41;100.00;102218.16;5016117;28;20052;-46
2022/06/12 03:29:14;;;;;;;16.50;4.53;;;;;;;12.41;100.00;102222.69;5017091;28;20053;-49
2022/06/12 03:31:52;;;;;;;13.68;3.97;;;;;;;12.39;100.00;102220.16;5016203;28;20509;-46
2022/06/12 03:34:46;;;;;;;18.88;4.28;;;;;;;12.37;100.00;102221.25;5015870;28;20079;-47
2022/06/12 03:37:26;;;;;;;13.85;4.13;;;;;;;12.36;100.00;102223.09;5016192;28;20060;-47
2022/06/12 03:40:01;;;;;;;17.27;4.37;;;;;;;12.33;100.00;102228.72;5015727;28;20029;-45
2022/06/12 03:42:41;;;;;;;14.80;5.05;;;;;;;12.36;100.00;102227.63;5016684;28;20026;-45
2022/06/12 03:45:12;;;;;;;19.65;4.90;;;;;;;12.30;100.00;102229.88;5016001;28;20109;-48
2022/06/12 03:47:48;;;;;;;21.48;5.10;;;;;;;12.33;100.00;102226.03;5013820;28;20080;-49
2022/06/12 03:50:20;;;;;;;13.15;4.28;;;;;;;12.32;100.00;102221.66;5016248;28;20107;-46
2022/06/12 03:52:48;;;;;;;;;;;;;;;12.38;100.00;102223.78;5016596;28;20356;-46
2022/06/12 03:58:20;;;;;;;15.83;4.33;;;;;;;12.29;100.00;102219.28;5015665;28;20152;-45
2022/06/12 04:00:49;;;;;;;22.10;4.80;;;;;;;12.35;100.00;102224.06;5016779;28;20264;-46
2022/06/12 04:03:25;;;;;;;16.67;4.43;;;;;;;12.37;100.00;102221.25;5015086;28;20029;-46
2022/06/12 04:05:54;;;;;;;18.48;4.90;;;;;;;12.42;100.00;102227.03;5015272;28;20676;-46
2022/06/12 04:08:24;;;;;;;22.17;4.72;;;;;;;12.37;100.00;102218.56;5016028;28;20602;-44
2022/06/12 04:10:52;;;;;;;18.38;4.50;;;;;;;12.46;100.00;102228.47;5015303;28;20052;-47
2022/06/12 04:13:19;;;;;;;20.30;4.57;;;;;;;12.49;100.00;102228.16;5015580;28;20036;-45
2022/06/12 04:15:50;;;;;;;15.32;4.55;;;;;;;12.50;100.00;102232.56;5015131;28;20040;-45
2022/06/12 04:18:16;;;;;;;;;;;;;;;12.59;100.00;102230.88;5015241;28;20048;-46
2022/06/12 04:21:13;;;;;;;14.23;4.25;;;;;;;12.59;100.00;102228.19;5016350;28;19905;-44
2022/06/12 04:23:43;;;;;;;16.48;4.00;;;;;;;12.64;100.00;102228.59;5014227;28;20142;-48
2022/06/12 04:26:37;;;;;;;23.55;4.82;;;;;;;12.71;100.00;102234.25;5008577;28;20026;-48
2022/06/12 04:29:11;;;;;;;28.85;4.50;;;;;;;12.73;100.00;102232.28;5014825;28;20060;-46
2022/06/12 04:31:38;;;;;;;14.75;4.43;;;;;;;12.69;100.00;102234.38;5013854;28;20033;-45
2022/06/12 04:34:13;;;;;;;13.02;4.65;;;;;;;12.67;100.00;102237.22;5013787;28;20041;-45
2022/06/12 04:36:40;;;;;;;19.10;5.10;;;;;;;12.67;100.00;102245.25;5014626;28;20057;-47
2022/06/12 04:39:06;;;;;;;15.80;4.90;;;;;;;12.73;100.00;102245.69;5014903;28;20144;-45
2022/06/12 04:41:35;;;;;;;16.05;5.00;;;;;;;12.73;100.00;102246.53;5015117;28;20274;-45
2022/06/12 04:44:02;;;;;;;14.07;4.45;;;;;;;12.78;100.00;102246.09;5014280;28;20033;-46
2022/06/12 04:46:27;;;;;;;17.95;5.05;;;;;;;12.83;100.00;102246.53;5014234;28;20072;-45
2022/06/12 04:48:55;;;;;;;17.98;5.07;;;;;;;12.85;100.00;102253.44;5013942;28;20268;-44
2022/06/12 04:51:21;;;;;;;21.60;5.57;;;;;;;12.86;100.00;102247.09;5013002;28;20417;-43
2022/06/12 04:53:48;;;;;;;15.73;5.13;;;;;;;12.90;100.00;102247.66;5014484;28;20124;-44
2022/06/12 04:56:15;;;;;;;18.95;5.10;;;;;;;12.92;100.00;102237.66;5014781;28;20237;-45
2022/06/12 04:58:41;;;;;;;16.95;5.20;;;;;;;12.94;100.00;102246.38;5014657;28;20018;-45
2022/06/12 05:01:08;;;;;;;16.23;4.88;;;;;;;12.96;100.00;102238.19;5014559;28;20036;-45
2022/06/12 05:03:34;;;;;;;17.10;5.25;;;;;;;13.00;100.00;102234.22;5013326;28;20018;-45
2022/06/12 05:05:59;;;;;;;21.35;5.10;;;;;;;13.02;100.00;102237.63;5014141;28;20075;-48
2022/06/12 05:08:25;;;;;;;19.83;5.43;;;;;;;13.05;100.00;102235.50;5014824;28;20040;-47
2022/06/12 05:10:51;;;;;;;25.30;5.97;;;;;;;13.15;100.00;102238.19;5013906;28;20441;-49
2022/06/12 05:13:17;;;;;;;17.30;5.00;;;;;;;13.21;100.00;102242.13;5014647;28;20164;-47
2022/06/12 05:15:45;;;;;;;19.75;5.47;;;;;;;13.26;100.00;102239.84;5014908;28;20105;-46
2022/06/12 05:18:13;;;;;;;16.88;5.65;;;;;;;13.29;100.00;102236.03;5014086;28;20116;-46
2022/06/12 05:20:38;;;;;;;16.73;5.10;;;;;;;13.34;100.00;102239.16;5014337;28;20101;-46
2022/06/12 05:23:05;;;;;;;23.42;5.65;;;;;;;13.44;100.00;102245.34;5014081;28;20033;-47
2022/06/12 05:25:31;;;;;;;20.25;5.85;;;;;;;13.52;100.00;102239.25;5013069;28;20021;-44
2022/06/12 05:27:57;;;;;;;18.40;5.45;;;;;;;13.56;100.00;102248.69;5014351;28;20075;-44
2022/06/12 05:30:25;;;;;;;23.60;5.82;;;;;;;13.60;100.00;102236.69;5014311;28;20116;-47
2022/06/12 05:32:52;;;;;;;21.48;5.85;;;;;;;13.70;100.00;102244.72;5012940;28;20382;-43
2022/06/12 05:35:19;;;;;;;21.05;5.93;;;;;;;13.74;100.00;102251.47;5012452;28;20025;-44
2022/06/12 05:37:45;;;;;;;21.25;5.63;;;;;;;13.82;100.00;102248.06;5014705;28;20182;-43
2022/06/12 05:40:15;;;;;;;24.10;6.10;;;;;;;13.86;100.00;102246.75;5013540;28;20070;-44
2022/06/12 05:42:41;;;;;;;24.25;5.80;;;;;;;13.94;100.00;102238.81;5014457;28;20029;-45
2022/06/12 05:45:12;;;;;;;24.85;6.32;;;;;;;14.01;100.00;102242.56;5014770;28;20025;-45
2022/06/12 05:47:45;;;;;;;22.60;6.07;;;;;;;14.09;100.00;102240.00;5013384;28;20029;-44
2022/06/12 05:50:11;;;;;;;22.85;6.25;;;;;;;14.16;100.00;102242.91;5013886;28;20087;-45
2022/06/12 05:52:36;;;;;;;21.95;5.95;;;;;;;14.22;100.00;102247.69;5013608;28;20033;-60
2022/06/12 05:55:01;;;;;;;22.70;5.88;;;;;;;14.31;100.00;102245.94;5001412;28;20022;-47
2022/06/12 05:57:27;;;;;;;17.75;5.25;;;;;;;14.37;100.00;102245.31;5014492;28;20022;-45
2022/06/12 05:59:52;;;;;;;28.65;6.40;;;;;;;14.46;100.00;102254.31;5014093;28;20029;-46
2022/06/12 06:02:17;;;;;;;24.70;5.88;;;;;;;14.59;100.00;102257.50;5012629;28;20044;-44
2022/06/12 06:04:43;;;;;;;24.60;5.85;;;;;;;14.68;100.00;102244.97;5014563;28;20033;-44
2022/06/12 06:07:09;;;;;;;31.25;6.07;;;;;;;14.77;100.00;102245.94;5012796;28;20771;-47
2022/06/12 06:09:34;;;;;;;30.98;6.00;;;;;;;14.78;100.00;102244.91;5013894;28;20107;-43
2022/06/12 06:12:00;;;;;;;31.92;6.43;;;;;;;14.86;100.00;102256.59;5013473;28;20021;-46
2022/06/12 06:14:25;;;;;;;24.13;6.38;;;;;;;14.94;100.00;102252.31;5017491;28;20132;-43
2022/06/12 06:16:50;;;;;;;26.00;5.82;;;;;;;15.10;100.00;102260.47;5016740;28;20101;-47
2022/06/12 06:19:16;;;;;;;24.00;6.60;;;;;;;15.23;100.00;102260.91;5015356;28;20403;-45
2022/06/12 06:21:42;;;;;;;28.05;6.63;;;;;;;15.30;100.00;102259.28;5017356;28;20536;-44
2022/06/12 06:24:09;;;;;;;29.33;6.28;;;;;;;15.44;100.00;102263.28;5016169;28;20120;-44
2022/06/12 06:26:35;;;;;;;20.70;6.25;;;;;;;15.60;100.00;102265.22;5009082;28;20148;-45
2022/06/12 06:29:01;;;;;;;26.25;6.30;;;;;;;15.81;100.00;102270.22;5016746;28;20128;-44
2022/06/12 06:31:27;;;;;;;29.10;6.85;;;;;;;16.14;100.00;102267.69;5016244;28;20446;-44
2022/06/12 06:33:54;;;;;;;27.20;6.60;;;;;;;16.23;100.00;102276.63;5016842;28;20507;-44
2022/06/12 06:36:20;;;;;;;28.33;7.03;;;;;;;16.26;100.00;102268.22;5016712;28;20152;-46
2022/06/12 06:38:46;;;;;;;23.60;6.65;;;;;;;16.17;100.00;102272.75;5016416;28;20112;-47
2022/06/12 06:41:14;;;;;;;30.25;6.75;;;;;;;16.16;100.00;102271.06;5017608;28;20092;-45
2022/06/12 06:46:23;;;;;;;26.33;6.60;;;;;;;16.15;100.00;102280.13;5016099;28;20145;-45
2022/06/12 06:48:49;;;;;;;26.48;6.43;;;;;;;16.18;100.00;102278.97;5015367;28;20476;-47
2022/06/12 06:51:14;;;;;;;28.20;6.82;;;;;;;16.28;100.00;102278.84;5016798;28;20041;-46
2022/06/12 06:53:40;;;;;;;21.85;6.43;;;;;;;16.34;100.00;102281.72;5016606;28;20324;-46
2022/06/12 06:56:06;;;;;;;23.98;6.50;;;;;;;16.41;100.00;102281.91;5016996;28;20134;-44
2022/06/12 06:58:32;;;;;;;31.27;7.03;;;;;;;16.41;100.00;102274.69;5016700;28;20105;-44
2022/06/12 07:00:58;;;;;;;29.13;7.35;;;;;;;16.44;100.00;102283.44;5015983;28;20018;-46
2022/06/12 07:03:23;;;;;;;28.13;6.60;;;;;;;16.46;100.00;102284.94;5014829;28;20060;-44
2022/06/12 07:05:49;;;;;;;26.10;6.95;;;;;;;16.46;100.00;102279.56;5015979;28;20390;-47
2022/06/12 07:08:16;;;;;;;26.90;6.90;;;;;;;16.46;100.00;102282.25;5016738;28;20161;-47
2022/06/12 07:10:42;;;;;;;36.30;7.57;;;;;;;16.55;100.00;102278.56;5016557;28;20026;-46
2022/06/12 07:13:08;;;;;;;27.98;7.32;;;;;;;16.76;100.00;102283.50;5016511;28;20038;-49
2022/06/12 07:15:35;;;;;;;30.38;6.72;;;;;;;16.94;100.00;102279.84;5006116;28;20034;-43
2022/06/12 07:18:01;;;;;;;28.42;6.78;;;;;;;17.14;100.00;102281.19;5013097;28;20440;-49
2022/06/12 07:20:31;;;;;;;30.90;7.65;;;;;;;17.34;100.00;102284.38;5015772;28;20487;-45
2022/06/12 07:22:56;;;;;;;35.33;7.45;;;;;;;17.56;100.00;102281.97;5014747;28;20045;-45
2022/06/12 07:25:22;;;;;;;24.95;6.75;;;;;;;17.79;100.00;102282.09;5015868;28;20664;-46
2022/06/12 07:27:48;;;;;;;34.05;7.03;;;;;;;17.86;100.00;102282.22;5016109;28;20389;-47
2022/06/12 07:30:18;;;;;;;27.90;6.70;;;;;;;17.87;99.35;102283.94;5016632;28;20053;-46
2022/06/12 07:32:44;;;;;;;27.40;5.67;;;;;;;17.86;100.00;102280.41;5014164;28;20073;-47
2022/06/12 07:35:10;;;;;;;25.33;6.32;;;;;;;17.94;98.85;102287.66;5016393;28;20025;-44
2022/06/12 07:37:36;;;;;;;28.95;5.55;;;;;;;17.95;96.31;102292.00;5015407;28;20036;-48
2022/06/12 07:40:05;;;;;;;25.42;5.78;;;;;;;18.07;98.94;102281.66;5015035;28;20124;-45
2022/06/12 07:42:30;;;;;;;28.45;5.70;;;;;;;18.34;95.89;102288.47;5015593;28;20033;-45
2022/06/12 07:44:55;;;;;;;30.00;5.63;;;;;;;18.33;93.55;102297.63;5015273;28;20028;-46
2022/06/12 07:47:21;;;;;;;23.80;4.85;;;;;;;18.25;92.11;102289.53;5013738;28;20494;-46
2022/06/12 07:49:46;;;;;;;19.35;4.95;;;;;;;18.25;93.51;102303.88;5015386;28;20873;-50
2022/06/12 07:52:12;;;;;;;29.60;5.20;;;;;;;18.17;91.43;102294.97;5015572;28;20048;-48
2022/06/12 07:54:39;;;;;;;24.75;4.53;;;;;;;18.22;90.13;102300.69;5013503;28;20143;-48
2022/06/12 07:57:06;;;;;;;17.27;4.38;;;;;;;18.49;90.17;102291.25;5014833;28;20435;-46
2022/06/12 07:59:32;;;;;;;24.23;5.47;;;;;;;18.82;89.97;102296.44;5015608;28;20107;-47
2022/06/12 08:01:58;;;;;;;21.58;4.95;;;;;;;18.93;87.06;102292.53;5012710;28;20396;-47
2022/06/12 08:04:24;;;;;;;28.90;5.18;;;;;;;19.14;88.17;102294.53;5012784;28;20019;-46
2022/06/12 08:06:50;;;;;;;21.42;4.75;;;;;;;19.14;85.39;102292.66;5015468;28;20510;-46
2022/06/12 08:09:17;;;;;;;26.13;4.43;;;;;;;18.92;87.29;102296.25;5014962;28;20029;-46
2022/06/12 08:11:46;;;;;;;22.98;4.60;;;;;;;18.81;88.25;102290.19;5015605;28;20645;-44
2022/06/12 08:14:14;;;;;;;25.08;5.00;;;;;;;18.98;90.04;102292.81;5015257;28;20630;-47
2022/06/12 08:16:40;;;;;;;31.55;4.68;;;;;;;18.98;87.94;102285.53;5014224;28;20052;-47
2022/06/12 08:20:24;;;;;;;24.27;5.32;;;;;;;18.97;85.23;102296.53;5013601;28;20040;-46
2022/06/12 08:21:52;;;;;;;24.73;5.00;;;;;;;19.25;86.80;102285.16;5014761;28;20360;-43
2022/06/12 08:24:17;;;;;;;23.92;4.97;;;;;;;19.44;86.38;102283.78;5014214;28;20040;-46
2022/06/12 08:26:42;;;;;;;25.15;5.75;;;;;;;19.49;85.61;102282.19;5014777;28;20321;-46
2022/06/12 08:29:11;;;;;;;22.60;5.05;;;;;;;19.64;85.62;102286.78;5014559;28;20053;-45
2022/06/12 08:31:40;;;;;;;24.23;4.80;;;;;;;19.72;81.36;102283.97;5013676;28;20032;-49
2022/06/12 08:34:10;;;;;;;21.50;5.10;;;;;;;19.78;84.83;102285.97;5013757;28;20021;-45
2022/06/12 08:36:36;;;;;;;28.27;5.20;;;;;;;19.70;79.84;102284.16;5014123;28;20029;-46
2022/06/12 08:39:03;;;;;;;24.35;4.65;;;;;;;19.81;80.75;102291.03;5013442;28;20321;-43
2022/06/12 08:41:35;;;;;;;17.92;4.20;;;;;;;19.78;78.68;102285.13;5015241;28;20232;-48
2022/06/12 08:44:26;;;;;;;16.60;4.15;;;;;;;19.94;82.59;102283.06;5014824;28;20033;-46
2022/06/12 08:47:11;;;;;;;25.75;5.13;;;;;;;20.11;81.75;102285.56;5013820;28;20139;-45
2022/06/12 08:50:02;;;;;;;18.45;4.32;;;;;;;20.09;79.77;102279.50;5014457;28;20559;-45
2022/06/12 08:52:46;;;;;;;19.38;4.68;;;;;;;19.99;76.56;102270.81;5029427;28;20101;-44
2022/06/12 08:55:25;;;;;;;19.30;4.65;;;;;;;19.85;78.64;102273.34;5012131;28;20128;-45
2022/06/12 08:58:13;;;;;;;16.15;3.85;;;;;;;19.87;78.53;102274.00;5014366;28;20030;-45
2022/06/12 09:00:39;;;;;;;18.05;4.15;;;;;;;19.81;77.51;102263.91;5004010;28;20138;-46
2022/06/12 09:03:11;;;;;;;17.55;4.45;;;;;;;19.99;81.11;102260.78;5012835;28;20303;-45
2022/06/12 09:05:55;;;;;;;15.05;3.83;;;;;;;20.12;74.74;102266.38;5014540;28;20028;-46
2022/06/12 09:08:38;;;;;;;17.95;4.30;;;;;;;20.27;77.23;102254.69;5013339;28;20327;-45
2022/06/12 09:11:15;;;;;;;19.63;3.75;;;;;;;20.73;73.33;102257.06;5014286;28;20615;-47
2022/06/12 09:13:50;;;;;;;17.15;3.63;;;;;;;21.10;68.15;102268.69;5015084;28;20033;-45
2022/06/12 09:16:38;;;;;;;16.33;3.28;;;;;;;21.41;64.35;102270.16;5012920;28;20021;-47
2022/06/12 09:19:24;;;;;;;18.92;3.20;;;;;;;21.56;65.84;102265.47;5013282;28;20083;-46
2022/06/12 09:22:09;;;;;;;16.73;3.15;;;;;;;21.48;64.85;102267.53;5013409;28;20059;-44
2022/06/12 09:24:51;;;;;;;23.10;4.10;;;;;;;21.17;65.19;102264.13;5013887;28;20064;-46
2022/06/12 09:27:16;;;;;;;19.27;3.60;;;;;;;21.04;62.44;102272.16;5011508;28;20021;-50
2022/06/12 09:29:54;;;;;;;21.93;4.00;;;;;;;20.89;66.25;102268.69;5003975;28;20135;-45
2022/06/12 09:32:44;;;;;;;18.00;3.95;;;;;;;20.74;66.62;102263.31;5027600;28;20029;-49
2022/06/12 09:35:30;;;;;;;42.47;3.90;;;;;;;20.78;67.67;102264.63;5042531;28;20814;-45
2022/06/12 09:38:18;;;;;;;15.68;3.35;;;;;;;20.86;68.10;102264.50;5029443;28;20278;-47
2022/06/12 09:41:07;;;;;;;16.38;3.08;;;;;;;20.92;67.87;102265.59;5027595;28;20086;-46
2022/06/12 09:43:48;;;;;;;169.27;9.00;;;;;;;21.03;66.84;102265.06;5024199;28;20036;-45
2022/06/12 09:46:32;;;;;;;;;;;;;;;21.25;64.08;102268.59;5031593;28;20049;-47
2022/06/12 09:49:27;;;;;;;20.15;3.50;;;;;;;21.28;61.95;102268.16;5034337;28;19909;-48
2022/06/12 09:51:59;;;;;;;16.45;2.75;;;;;;;21.31;62.53;102269.66;5035638;28;20028;-47
2022/06/12 09:54:45;;;;;;;12.63;3.40;;;;;;;21.40;62.75;102269.31;5033369;28;20556;-47
2022/06/12 09:57:35;;;;;;;20.77;3.60;;;;;;;21.42;62.19;102274.56;5025201;28;20176;-49
2022/06/12 10:00:21;;;;;;;14.03;2.90;;;;;;;21.28;61.20;102268.16;5031212;28;20230;-44
2022/06/12 10:03:18;;;;;;;14.90;3.25;;;;;;;21.17;63.78;102266.03;5031753;28;20013;-46
2022/06/12 10:05:56;;;;;;;15.27;2.95;;;;;;;21.33;65.48;102262.16;5032081;28;20107;-44
2022/06/12 10:08:25;;;;;;;14.23;3.03;;;;;;;21.70;63.79;102254.69;5034468;28;21125;-45
2022/06/12 10:11:09;;;;;;;17.48;3.13;;;;;;;21.86;59.46;102256.22;5009548;28;20033;-47
2022/06/12 10:13:46;;;;;;;15.57;3.15;;;;;;;21.69;57.73;102247.56;5014705;28;20483;-45
2022/06/12 10:16:35;;;;;;;14.68;2.90;;;;;;;21.69;57.59;102259.28;5010799;28;20101;-46
2022/06/12 10:19:12;;;;;;;11.60;2.78;;;;;;;21.57;57.42;102259.00;5012018;28;20106;-47
2022/06/12 10:21:40;;;;;;;17.90;2.83;;;;;;;21.73;58.74;102251.56;5013777;28;20030;-46
2022/06/12 10:24:07;;;;;;;11.80;3.08;;;;;;;21.85;58.45;102255.38;5014993;28;20466;-46
2022/06/12 10:26:33;;;;;;;12.60;3.00;;;;;;;21.82;56.84;102258.50;5014880;28;20044;-46
2022/06/12 10:29:09;;;;;;;13.45;2.85;;;;;;;21.81;58.07;102254.13;5016338;28;20055;-46
2022/06/12 10:31:48;;;;;;;15.80;3.00;;;;;;;21.71;57.73;102259.09;5013803;28;20117;-46
2022/06/12 10:34:20;;;;;;;14.18;2.70;;;;;;;21.57;60.12;102245.41;5011027;28;20029;-49
2022/06/12 10:36:46;;;;;;;8.35;2.60;;;;;;;21.65;59.59;102249.84;5016143;28;20521;-45
2022/06/12 10:39:13;;;;;;;13.73;2.67;;;;;;;22.06;62.94;102250.88;5013478;28;20541;-45
2022/06/12 10:41:48;;;;;;;14.45;3.08;;;;;;;22.40;57.81;102247.22;5011209;28;20033;-45
2022/06/12 10:44:33;;;;;;;13.15;2.95;;;;;;;22.55;58.03;102236.16;5016701;28;20824;-47
2022/06/12 10:47:28;;;;;;;14.55;3.08;;;;;;;22.85;59.31;102231.16;5010132;28;20033;-46
2022/06/12 10:50:12;;;;;;;12.18;2.70;;;;;;;23.15;53.98;102241.69;5016746;28;20095;-46
2022/06/12 10:52:37;;;;;;;11.82;2.95;;;;;;;23.04;55.36;102240.38;5016377;28;20026;-45
2022/06/12 10:55:11;;;;;;;13.43;2.72;;;;;;;22.37;55.34;102235.91;5011913;28;20028;-47
2022/06/12 10:58:02;;;;;;;13.93;3.20;;;;;;;22.14;58.33;102239.81;5013042;28;20119;-47
2022/06/12 11:00:34;;;;;;;16.38;3.28;;;;;;;22.16;56.92;102237.72;5015273;28;20029;-48
2022/06/12 11:03:26;;;;;;;13.25;2.72;;;;;;;22.49;56.56;102229.69;5015791;28;20037;-46
2022/06/12 11:06:12;;;;;;;15.15;2.85;;;;;;;22.57;56.87;102236.78;5010561;28;20349;-45
2022/06/12 11:09:13;;;;;;;11.85;2.60;;;;;;;22.50;55.78;102227.78;5016771;28;20057;-48
2022/06/12 11:11:57;;;;;;;13.63;2.75;;;;;;;21.87;56.54;102234.25;5017046;28;20385;-47
2022/06/12 11:15:03;;;;;;;14.93;3.50;;;;;;;22.10;59.39;102227.66;5003930;28;20037;-49
2022/06/12 11:17:44;;;;;;;9.57;2.60;;;;;;;21.96;57.78;102230.34;4997528;28;20488;-49
2022/06/12 11:21:00;;;;;;;13.93;2.60;;;;;;;21.51;60.06;102227.19;5016535;28;20025;-49
2022/06/12 11:23:56;;;;;;;13.10;2.88;;;;;;;21.22;62.90;102225.50;4985601;28;20042;-46
2022/06/12 11:26:48;;;;;;;14.93;2.92;;;;;;;21.14;65.75;102231.09;5015975;28;20029;-49
2022/06/12 11:29:49;;;;;;;12.73;2.40;;;;;;;21.06;65.11;102232.06;5015060;28;20389;-46
2022/06/12 11:32:25;;;;;;;13.40;3.00;;;;;;;20.97;62.71;102234.09;5014762;28;20021;-47
2022/06/12 11:35:22;;;;;;;14.07;2.53;;;;;;;21.04;64.17;102232.28;5016912;28;20384;-49
2022/06/12 11:38:06;;;;;;;12.48;3.00;;;;;;;21.36;62.07;102223.72;4982712;28;20345;-47
2022/06/12 11:40:38;;;;;;;14.40;2.85;;;;;;;21.90;61.04;102212.09;5009035;28;20322;-51
2022/06/12 11:43:15;;;;;;;16.63;2.75;;;;;;;22.20;60.12;102216.38;5016102;28;20028;-46
2022/06/12 11:46:01;;;;;;;9.02;2.55;;;;;;;22.60;58.74;102217.31;5008029;28;20030;-49
2022/06/12 11:48:33;;;;;;;11.93;2.30;;;;;;;22.70;54.77;102203.31;5008136;28;20025;-46
2022/06/12 11:51:12;;;;;;;17.25;2.78;;;;;;;23.02;55.23;102207.06;5030122;28;20061;-45
2022/06/12 11:54:10;;;;;;;10.18;2.38;;;;;;;23.07;54.09;102207.28;5014560;28;21223;-50